Meredith, New Hampshire
Current Conditions -  °F | °C
As of 3:15 PM on Thursday 30 Oct 2014 (Local Time) from KLCI Reporting Station
Overcast Overcast  
Wind Chill: 52°   Ceiling: 4300
Heat Index: 52°   Visibility: 10mi
Dew Point: 36°   Wind: 6mph
Humidity: 54%   Direction: 270°W
Pressure: 29.9"   Gusts: NA
Location:  43.66°N, 71.5°W
Report Text: KLCI 301915Z AUTO 27005KT 10SM FEW036 BKN043 OVC050 11/02 A2990 RMK AO1
Loading
Personal Weather Stations






























Interactive Weather Map
Tropical Storm Tracking
New forecast layout! Learn more

10-Day Weather Forecast

Advertisements
Track Severe Weather on mobile